Time;durP1;ratioP1;P1;durP2;ratioP2;P2;SDS_P1;SDS_P2;PMS_P1;PMS_P2;Temp;Humidity;BMP_temperature;BMP_pressure;BME280_temperature;BME280_humidity;BME280_pressure;Samples;Min_cycle;Max_cycle;Signal;HPM_P1;HPM_P2
2022/07/07 00:00:58;;;;;;;;;;;538.10;1868.80;;;;;;5093964;28;19927;-58
2022/07/07 00:03:24;;;;;;;;;;;538.00;1868.80;;;;;;5094208;28;19921;-57
2022/07/07 00:05:49;;;;;;;;;;;538.00;1868.80;;;;;;5093912;28;19908;-58
2022/07/07 00:08:15;;;;;;;;;;;538.00;1868.80;;;;;;5094268;28;20067;-58
2022/07/07 00:10:40;;;;;;;;;;;538.00;1868.80;;;;;;5094035;28;20358;-58
2022/07/07 00:13:06;;;;;;;;;;;538.00;1868.80;;;;;;5093874;28;19916;-56
2022/07/07 00:15:31;;;;;;;;;;;538.00;1843.20;;;;;;5094058;28;20373;-58
2022/07/07 00:17:57;;;;;;;;;;;538.00;1843.20;;;;;;5093903;28;19908;-56
2022/07/07 00:20:23;;;;;;;;;;;538.00;1843.20;;;;;;5093969;28;19985;-56
2022/07/07 00:22:48;;;;;;;;;;;538.00;1843.20;;;;;;5093540;28;19923;-57
2022/07/07 00:25:14;;;;;;;;;;;538.00;1843.20;;;;;;5093988;28;19920;-57
2022/07/07 00:27:39;;;;;;;;;;;538.00;1843.20;;;;;;5093616;28;20392;-58
2022/07/07 00:30:05;;;;;;;;;;;538.00;1843.20;;;;;;5093899;28;20068;-57
2022/07/07 00:32:31;;;;;;;;;;;538.00;1868.80;;;;;;5093594;28;19948;-57
2022/07/07 00:34:57;;;;;;;;;;;537.90;1843.20;;;;;;5093740;28;19958;-57
2022/07/07 00:37:22;;;;;;;;;;;537.90;1843.20;;;;;;5093584;28;20274;-56
2022/07/07 00:39:48;;;;;;;;;;;537.90;1843.20;;;;;;5093170;28;19915;-56
2022/07/07 00:42:14;;;;;;;;;;;537.90;1843.20;;;;;;5093307;28;19934;-56
2022/07/07 00:44:40;;;;;;;;;;;537.90;1843.20;;;;;;5093220;28;19967;-57
2022/07/07 00:47:05;;;;;;;;;;;537.90;1868.80;;;;;;5092969;28;20003;-57
2022/07/07 00:49:32;;;;;;;;;;;537.80;1868.80;;;;;;5093240;28;19916;-55
2022/07/07 00:51:58;;;;;;;;;;;537.70;1894.40;;;;;;5092703;28;19914;-55
2022/07/07 00:54:24;;;;;;;;;;;537.70;1894.40;;;;;;5090372;28;19938;-57
2022/07/07 00:56:50;;;;;;;;;;;537.60;1894.40;;;;;;5092653;28;20362;-58
2022/07/07 00:59:16;;;;;;;;;;;537.60;1894.40;;;;;;5091399;28;19951;-56
2022/07/07 01:01:43;;;;;;;;;;;537.60;1868.80;;;;;;5092716;28;19920;-55
2022/07/07 01:04:10;;;;;;;;;;;537.60;1894.40;;;;;;5092478;28;19920;-55
2022/07/07 01:06:36;;;;;;;;;;;512.90;1868.80;;;;;;5092410;28;19908;-57
2022/07/07 01:09:02;;;;;;;;;;;512.90;1894.40;;;;;;5092647;28;20323;-55
2022/07/07 01:11:43;;;;;;;;;;;512.80;1920.00;;;;;;5092182;28;19961;-56
2022/07/07 01:14:08;;;;;;;;;;;512.70;1945.60;;;;;;5092370;28;20006;-56
2022/07/07 01:16:34;;;;;;;;;;;512.50;1945.60;;;;;;5092906;28;19948;-55
2022/07/07 01:18:59;;;;;;;;;;;512.50;1971.20;;;;;;5092689;28;19909;-57
2022/07/07 01:21:25;;;;;;;;;;;512.50;1971.20;;;;;;5091400;28;19966;-57
2022/07/07 01:23:51;;;;;;;;;;;512.40;1971.20;;;;;;5092757;28;19916;-56
2022/07/07 01:26:16;;;;;;;;;;;512.40;1971.20;;;;;;5092613;28;19912;-57
2022/07/07 01:28:42;;;;;;;;;;;512.40;1971.20;;;;;;5092649;28;19908;-58
2022/07/07 01:31:08;;;;;;;;;;;512.40;1971.20;;;;;;5092555;28;19915;-58
2022/07/07 01:33:34;;;;;;;;;;;512.40;1971.20;;;;;;5092515;28;20543;-56
2022/07/07 01:35:59;;;;;;;;;;;512.40;1971.20;;;;;;5090571;28;19996;-56
2022/07/07 01:38:25;;;;;;;;;;;512.30;1996.80;;;;;;5092660;28;19931;-59
2022/07/07 01:40:50;;;;;;;;;;;512.30;2022.40;;;;;;5092397;28;19912;-59
2022/07/07 01:43:16;;;;;;;;;;;512.10;2048.00;;;;;;5092214;28;19920;-57
2022/07/07 01:45:42;;;;;;;;;;;512.00;2048.00;;;;;;5092449;28;19951;-58
2022/07/07 01:48:07;;;;;;;;;;;512.00;2073.60;;;;;;5092226;28;19912;-56
2022/07/07 01:50:33;;;;;;;;;;;487.30;2073.60;;;;;;5092520;28;20014;-57
2022/07/07 01:52:58;;;;;;;;;;;487.30;2073.60;;;;;;5092157;28;19931;-58
2022/07/07 01:55:24;;;;;;;;;;;487.30;2099.20;;;;;;5092170;28;19912;-57
2022/07/07 01:57:49;;;;;;;;;;;487.30;2099.20;;;;;;5091975;28;19947;-55
2022/07/07 02:00:16;;;;;;;;;;;487.30;2124.80;;;;;;5091924;28;19928;-58
2022/07/07 02:02:41;;;;;;;;;;;487.30;2099.20;;;;;;5092061;28;19928;-56
2022/07/07 02:05:07;;;;;;;;;;;487.30;2099.20;;;;;;5091830;28;19908;-58
2022/07/07 02:07:34;;;;;;;;;;;487.30;2124.80;;;;;;5091947;28;19908;-56
2022/07/07 02:10:00;;;;;;;;;;;487.30;2099.20;;;;;;5091304;28;19915;-56
2022/07/07 02:12:26;;;;;;;;;;;487.30;2124.80;;;;;;5091629;28;20291;-56
2022/07/07 02:14:51;;;;;;;;;;;487.30;2124.80;;;;;;5091846;28;19916;-55
2022/07/07 02:17:17;;;;;;;;;;;487.30;2124.80;;;;;;5091519;28;19909;-58
2022/07/07 02:19:43;;;;;;;;;;;487.30;2124.80;;;;;;5091827;28;19908;-57
2022/07/07 02:22:09;;;;;;;;;;;487.30;2124.80;;;;;;5091730;28;19915;-57
2022/07/07 02:24:34;;;;;;;;;;;487.30;2150.40;;;;;;5091780;28;20279;-58
2022/07/07 02:27:00;;;;;;;;;;;487.30;2150.40;;;;;;5091461;28;20265;-58
2022/07/07 02:29:25;;;;;;;;;;;487.30;2176.00;;;;;;5091451;28;20472;-57
2022/07/07 02:31:51;;;;;;;;;;;487.30;2201.60;;;;;;5091323;28;19912;-58
2022/07/07 02:34:16;;;;;;;;;;;512.00;2201.60;;;;;;5091216;28;19919;-58
2022/07/07 02:36:42;;;;;;;;;;;487.30;2227.20;;;;;;5091662;28;19917;-58
2022/07/07 02:39:07;;;;;;;;;;;487.20;2278.40;;;;;;5091350;28;19952;-56
2022/07/07 02:41:33;;;;;;;;;;;487.10;2278.40;;;;;;5091235;28;20263;-57
2022/07/07 02:43:59;;;;;;;;;;;487.10;2304.00;;;;;;5091055;28;19990;-55
2022/07/07 02:46:24;;;;;;;;;;;487.10;2304.00;;;;;;5091209;28;19912;-55
2022/07/07 02:48:50;;;;;;;;;;;487.10;2329.60;;;;;;5090918;28;19916;-56
2022/07/07 02:51:15;;;;;;;;;;;487.00;2380.80;;;;;;5091066;28;19912;-56
2022/07/07 02:53:41;;;;;;;;;;;487.00;2380.80;;;;;;5091134;28;19947;-56
2022/07/07 02:56:06;;;;;;;;;;;487.00;2380.80;;;;;;5090790;28;20354;-56
2022/07/07 02:58:32;;;;;;;;;;;487.00;2380.80;;;;;;5090961;28;19908;-58
2022/07/07 03:00:58;;;;;;;;;;;487.00;2380.80;;;;;;5090699;28;19920;-56
2022/07/07 03:03:23;;;;;;;;;;;487.00;2380.80;;;;;;5090812;28;19923;-56
2022/07/07 03:05:49;;;;;;;;;;;487.00;2380.80;;;;;;5090468;28;19908;-58
2022/07/07 03:08:15;;;;;;;;;;;486.90;2380.80;;;;;;5091009;28;19915;-56
2022/07/07 03:10:41;;;;;;;;;;;487.00;2380.80;;;;;;5089402;28;20277;-57
2022/07/07 03:13:06;;;;;;;;;;;487.00;2380.80;;;;;;5090673;28;19957;-56
2022/07/07 03:15:32;;;;;;;;;;;487.00;2380.80;;;;;;5090869;28;20351;-56
2022/07/07 03:17:58;;;;;;;;;;;487.00;2380.80;;;;;;5090625;28;20421;-57
2022/07/07 03:20:23;;;;;;;;;;;487.00;2380.80;;;;;;5090533;28;19908;-58
2022/07/07 03:22:49;;;;;;;;;;;487.00;2380.80;;;;;;5089863;28;19970;-57
2022/07/07 03:25:15;;;;;;;;;;;487.10;2380.80;;;;;;5090520;28;19919;-58
2022/07/07 03:27:40;;;;;;;;;;;487.00;2380.80;;;;;;5090579;28;19991;-57
2022/07/07 03:30:07;;;;;;;;;;;487.10;2380.80;;;;;;5090544;28;19912;-56
2022/07/07 03:32:33;;;;;;;;;;;487.00;2380.80;;;;;;5089374;28;20399;-58
2022/07/07 03:34:58;;;;;;;;;;;487.10;2380.80;;;;;;5090218;28;20002;-56
2022/07/07 03:37:24;;;;;;;;;;;487.20;2380.80;;;;;;5090458;28;19919;-57
2022/07/07 03:39:50;;;;;;;;;;;487.20;2380.80;;;;;;5090344;28;20002;-58
2022/07/07 03:42:16;;;;;;;;;;;487.10;2380.80;;;;;;5089964;28;19974;-58
2022/07/07 03:44:41;;;;;;;;;;;487.10;2380.80;;;;;;5090500;28;20263;-56
2022/07/07 03:47:07;;;;;;;;;;;487.10;2380.80;;;;;;5090317;28;20271;-56
2022/07/07 03:49:32;;;;;;;;;;;487.10;2380.80;;;;;;5090515;28;19915;-55
2022/07/07 03:51:58;;;;;;;;;;;487.20;2380.80;;;;;;5090076;28;19944;-58
2022/07/07 03:54:24;;;;;;;;;;;487.20;2380.80;;;;;;5090382;28;20292;-58
2022/07/07 03:56:49;;;;;;;;;;;487.20;2380.80;;;;;;5090244;28;19908;-58
2022/07/07 03:59:15;;;;;;;;;;;487.30;2380.80;;;;;;5090382;28;20361;-57
2022/07/07 04:01:45;;;;;;;;;;;487.20;2380.80;;;;;;5090284;28;20346;-57
2022/07/07 04:04:12;;;;;;;;;;;487.10;2380.80;;;;;;5090437;28;20019;-58
2022/07/07 04:06:37;;;;;;;;;;;487.20;2380.80;;;;;;5090158;28;20333;-57
2022/07/07 04:09:03;;;;;;;;;;;487.30;2380.80;;;;;;5090509;28;19959;-57
2022/07/07 04:11:28;;;;;;;;;;;487.30;2380.80;;;;;;5089902;28;19912;-57
2022/07/07 04:13:54;;;;;;;;;;;512.10;2380.80;;;;;;5090092;28;19951;-56
2022/07/07 04:16:20;;;;;;;;;;;512.20;2380.80;;;;;;5090002;28;19908;-58
2022/07/07 04:18:45;;;;;;;;;;;512.30;2380.80;;;;;;5090068;28;20006;-58
2022/07/07 04:21:11;;;;;;;;;;;512.30;2380.80;;;;;;5089201;28;19908;-58
2022/07/07 04:23:36;;;;;;;;;;;512.60;2380.80;;;;;;5089778;28;19998;-57
2022/07/07 04:26:02;;;;;;;;;;;512.70;2355.20;;;;;;5090379;28;20358;-58
2022/07/07 04:28:28;;;;;;;;;;;512.70;2380.80;;;;;;5089643;28;19930;-57
2022/07/07 04:30:54;;;;;;;;;;;512.90;2304.00;;;;;;5090025;28;19915;-56
2022/07/07 04:33:19;;;;;;;;;;;537.70;2304.00;;;;;;5091928;28;19908;-57
2022/07/07 04:35:45;;;;;;;;;;;537.80;2329.60;;;;;;5093562;28;20358;-56
2022/07/07 04:38:10;;;;;;;;;;;538.00;2304.00;;;;;;5093526;28;19908;-56
2022/07/07 04:40:36;;;;;;;;;;;614.80;1996.80;;;;;;5093242;28;20273;-56
2022/07/07 04:43:02;;;;;;;;;;;691.90;1664.00;;;;;;5093455;28;19963;-56
2022/07/07 04:45:28;;;;;;;;;;;768.00;1484.80;;;;;;5093290;28;19912;-57
2022/07/07 04:47:53;;;;;;;;;;;793.70;1408.00;;;;;;5093497;28;19912;-56
2022/07/07 04:50:19;;;;;;;;;;;768.00;1433.60;;;;;;5093157;28;19968;-56
2022/07/07 04:52:44;;;;;;;;;;;793.60;1408.00;;;;;;5093347;28;19912;-56
2022/07/07 04:55:10;;;;;;;;;;;794.50;1331.20;;;;;;5093417;28;19965;-56
2022/07/07 04:57:36;;;;;;;;;;;844.80;1305.60;;;;;;5092934;28;20362;-57
2022/07/07 05:00:02;;;;;;;;;;;870.70;1203.20;;;;;;5093058;28;19968;-57
2022/07/07 05:02:28;;;;;;;;;;;896.50;1126.40;;;;;;5093058;28;19959;-56
2022/07/07 05:04:54;;;;;;;;;;;921.80;1126.40;;;;;;5092788;28;20020;-57
2022/07/07 05:07:20;;;;;;;;;;;922.40;1075.20;;;;;;5092936;28;19908;-57
2022/07/07 05:09:45;;;;;;;;;;;947.40;1075.20;;;;;;5093157;28;20369;-57
2022/07/07 05:12:11;;;;;;;;;;;947.70;1049.60;;;;;;5092866;28;20385;-58
2022/07/07 05:14:37;;;;;;;;;;;947.40;1075.20;;;;;;5092894;28;19912;-57
2022/07/07 05:17:02;;;;;;;;;;;947.80;1049.60;;;;;;5092875;28;20027;-58
2022/07/07 05:19:28;;;;;;;;;;;948.10;1024.00;;;;;;5092739;28;19908;-57
2022/07/07 05:21:54;;;;;;;;;;;973.10;1024.00;;;;;;5092911;28;19908;-57
2022/07/07 05:24:20;;;;;;;;;;;973.70;998.40;;;;;;5092378;28;19922;-58
2022/07/07 05:26:46;;;;;;;;;;;998.80;998.40;;;;;;5092871;28;19915;-57
2022/07/07 05:29:12;;;;;;;;;;;1024.10;947.20;;;;;;5092636;28;20435;-59
2022/07/07 05:31:37;;;;;;;;;;;1024.10;947.20;;;;;;5092579;28;19999;-59
2022/07/07 05:34:03;;;;;;;;;;;1049.70;972.80;;;;;;5092652;28;20386;-57
2022/07/07 05:36:29;;;;;;;;;;;1024.10;947.20;;;;;;5092392;28;19915;-57
2022/07/07 05:38:55;;;;;;;;;;;1049.60;947.20;;;;;;5092454;28;20362;-56
2022/07/07 05:41:21;;;;;;;;;;;1050.20;921.60;;;;;;5092189;28;19912;-57
2022/07/07 05:43:48;;;;;;;;;;;1050.10;921.60;;;;;;5091584;28;19920;-57
2022/07/07 05:46:13;;;;;;;;;;;1050.10;947.20;;;;;;5092222;28;19915;-58
2022/07/07 05:48:39;;;;;;;;;;;1050.30;921.60;;;;;;5092275;28;20320;-59
2022/07/07 05:51:04;;;;;;;;;;;1050.50;896.00;;;;;;5092223;28;20000;-57
2022/07/07 05:53:30;;;;;;;;;;;1075.90;896.00;;;;;;5091978;28;19915;-60
2022/07/07 05:55:56;;;;;;;;;;;1076.10;870.40;;;;;;5092021;28;19913;-57
2022/07/07 05:58:22;;;;;;;;;;;1101.50;870.40;;;;;;5092131;28;19908;-57
2022/07/07 06:00:47;;;;;;;;;;;1101.30;870.40;;;;;;5091809;28;19920;-59
2022/07/07 06:03:13;;;;;;;;;;;1101.60;844.80;;;;;;5091956;28;20358;-58
2022/07/07 06:05:38;;;;;;;;;;;1127.00;844.80;;;;;;5091891;28;19915;-56
2022/07/07 06:08:04;;;;;;;;;;;1152.20;819.20;;;;;;5091992;28;19948;-58
2022/07/07 06:10:31;;;;;;;;;;;1152.50;793.60;;;;;;5091562;28;20050;-59
2022/07/07 06:12:56;;;;;;;;;;;1152.10;819.20;;;;;;5091519;28;20290;-58
2022/07/07 06:15:22;;;;;;;;;;;1152.40;819.20;;;;;;5091633;28;19912;-57
2022/07/07 06:17:48;;;;;;;;;;;1152.60;793.60;;;;;;5091602;28;20415;-60
2022/07/07 06:20:14;;;;;;;;;;;;;;;;;;5092024;28;19908;-58
2022/07/07 06:22:39;;;;;;;;;;;1177.80;793.60;;;;;;5091609;28;20293;-58
2022/07/07 06:25:07;;;;;;;;;;;1178.50;742.40;;;;;;5091605;28;19908;-58
2022/07/07 06:27:32;;;;;;;;;;;1178.10;742.40;;;;;;5091375;28;19919;-59
2022/07/07 06:29:58;;;;;;;;;;;1178.20;742.40;;;;;;5091563;28;19908;-59
2022/07/07 06:32:23;;;;;;;;;;;1178.50;716.80;;;;;;5091612;28;19961;-58
2022/07/07 06:34:49;;;;;;;;;;;1203.30;742.40;;;;;;5091320;28;19908;-60
2022/07/07 06:37:15;;;;;;;;;;;1178.10;716.80;;;;;;5091471;28;19915;-59
2022/07/07 06:39:41;;;;;;;;;;;;;;;;;;5091352;28;19908;-61
2022/07/07 06:42:06;;;;;;;;;;;1203.70;716.80;;;;;;5090805;28;19912;-60
2022/07/07 06:44:32;;;;;;;;;;;1228.80;716.80;;;;;;5091221;28;19931;-59
2022/07/07 06:47:01;;;;;;;;;;;1229.40;691.20;;;;;;5090927;28;19908;-59
2022/07/07 06:49:27;;;;;;;;;;;1204.10;691.20;;;;;;5091211;28;19909;-59
2022/07/07 06:51:53;;;;;;;;;;;1204.10;691.20;;;;;;5091016;28;19953;-60
2022/07/07 06:54:19;;;;;;;;;;;1229.40;691.20;;;;;;5090884;28;19908;-59
2022/07/07 06:56:44;;;;;;;;;;;1229.20;716.80;;;;;;5090034;28;20268;-58
2022/07/07 06:59:10;;;;;;;;;;;1229.40;691.20;;;;;;5090753;28;19961;-60
2022/07/07 07:01:36;;;;;;;;;;;1229.40;691.20;;;;;;5090721;28;20017;-59
2022/07/07 07:04:01;;;;;;;;;;;1229.50;691.20;;;;;;5090959;28;19916;-60
2022/07/07 07:06:30;;;;;;;;;;;1254.80;691.20;;;;;;5090558;28;19931;-59
2022/07/07 07:08:56;;;;;;;;;;;1229.50;691.20;;;;;;5090767;28;19908;-59
2022/07/07 07:11:21;;;;;;;;;;;1254.90;691.20;;;;;;5090630;28;19918;-59
2022/07/07 07:13:47;;;;;;;;;;;1229.50;716.80;;;;;;5090569;28;19974;-60
2022/07/07 07:16:16;;;;;;;;;;;1254.40;691.20;;;;;;5090664;28;19908;-59
2022/07/07 07:18:42;;;;;;;;;;;1229.40;691.20;;;;;;5090679;28;20426;-59
2022/07/07 07:21:09;;;;;;;;;;;1254.40;691.20;;;;;;5090711;28;19908;-59
2022/07/07 07:23:35;;;;;;;;;;;1254.90;691.20;;;;;;5090620;28;19967;-59
2022/07/07 07:26:00;;;;;;;;;;;1254.60;691.20;;;;;;5090466;28;20255;-59
2022/07/07 07:28:26;;;;;;;;;;;1254.80;691.20;;;;;;5090423;28;19947;-59
2022/07/07 07:30:52;;;;;;;;;;;1229.70;691.20;;;;;;5090692;28;20251;-60
2022/07/07 07:33:17;;;;;;;;;;;1229.50;691.20;;;;;;5090348;28;19958;-58
2022/07/07 07:35:43;;;;;;;;;;;1229.70;691.20;;;;;;5090620;28;19908;-60
2022/07/07 07:38:08;;;;;;;;;;;1254.80;665.60;;;;;;5090406;28;19916;-58
2022/07/07 07:40:34;;;;;;;;;;;1255.10;665.60;;;;;;5090413;28;19955;-60
2022/07/07 07:42:59;;;;;;;;;;;1229.50;665.60;;;;;;5089766;28;20297;-58
2022/07/07 07:45:25;;;;;;;;;;;1254.40;691.20;;;;;;5090634;28;20015;-58
2022/07/07 07:47:51;;;;;;;;;;;1254.80;691.20;;;;;;5090262;28;20362;-60
2022/07/07 07:50:17;;;;;;;;;;;1255.00;691.20;;;;;;5090247;28;19915;-59
2022/07/07 07:52:44;;;;;;;;;;;1254.80;665.60;;;;;;5090534;28;19908;-58
2022/07/07 07:55:10;;;;;;;;;;;1254.40;691.20;;;;;;5089682;28;20375;-59
2022/07/07 07:57:36;;;;;;;;;;;1254.60;665.60;;;;;;5089798;28;20388;-57
2022/07/07 08:00:03;;;;;;;;;;;1229.40;691.20;;;;;;5090109;28;19916;-60
2022/07/07 08:02:28;;;;;;;;;;;1229.30;691.20;;;;;;5090311;28;19934;-57
2022/07/07 08:04:54;;;;;;;;;;;1255.00;665.60;;;;;;5090446;28;19923;-58
2022/07/07 08:07:20;;;;;;;;;;;1229.30;691.20;;;;;;5090663;28;20377;-60
2022/07/07 08:09:45;;;;;;;;;;;1229.00;691.20;;;;;;5094281;28;19968;-58
2022/07/07 08:12:11;;;;;;;;;;;1229.20;665.60;;;;;;5093944;28;19912;-60
2022/07/07 08:14:37;;;;;;;;;;;1229.30;691.20;;;;;;5093888;28;19912;-58
2022/07/07 08:17:03;;;;;;;;;;;1254.60;665.60;;;;;;5093885;28;19908;-58
2022/07/07 08:19:29;;;;;;;;;;;1203.30;716.80;;;;;;5093775;28;19939;-58
2022/07/07 08:21:54;;;;;;;;;;;1101.60;768.00;;;;;;5093957;28;20001;-59
2022/07/07 08:24:20;;;;;;;;;;;1024.50;793.60;;;;;;5093595;28;19938;-57
2022/07/07 08:26:45;;;;;;;;;;;973.40;844.80;;;;;;5093947;28;20380;-59
2022/07/07 08:29:11;;;;;;;;;;;922.40;844.80;;;;;;5093573;28;19908;-57
2022/07/07 08:31:36;;;;;;;;;;;896.80;896.00;;;;;;5093711;28;20007;-59
2022/07/07 08:34:02;;;;;;;;;;;896.20;896.00;;;;;;5093810;28;20259;-60
2022/07/07 08:36:30;;;;;;;;;;;896.10;921.60;;;;;;5093733;28;19908;-58
2022/07/07 08:38:56;;;;;;;;;;;871.00;998.40;;;;;;5093706;28;19914;-57
2022/07/07 08:41:22;;;;;;;;;;;870.70;1024.00;;;;;;5093453;28;19962;-56
2022/07/07 08:43:47;;;;;;;;;;;870.90;998.40;;;;;;5093235;28;19952;-57
2022/07/07 08:46:13;;;;;;;;;;;870.50;1024.00;;;;;;5093577;28;19915;-57
2022/07/07 08:48:39;;;;;;;;;;;870.50;998.40;;;;;;5093522;28;19931;-56
2022/07/07 08:51:04;;;;;;;;;;;845.70;998.40;;;;;;5093554;28;20354;-59
2022/07/07 08:53:32;;;;;;;;;;;845.40;972.80;;;;;;5093241;28;20278;-57
2022/07/07 08:55:59;;;;;;;;;;;845.30;1049.60;;;;;;5093201;28;19915;-56
2022/07/07 08:58:25;;;;;;;;;;;845.30;1049.60;;;;;;5093204;28;19921;-60
2022/07/07 09:00:52;;;;;;;;;;;845.40;1024.00;;;;;;5091353;28;19931;-57
2022/07/07 09:03:18;;;;;;;;;;;845.30;1024.00;;;;;;5091744;28;20022;-59
2022/07/07 09:05:44;;;;;;;;;;;845.60;1024.00;;;;;;5091863;28;20035;-57
2022/07/07 09:08:17;;;;;;;;;;;845.60;1024.00;;;;;;5088872;28;19912;-58
2022/07/07 09:10:44;;;;;;;;;;;845.30;1024.00;;;;;;5091646;28;20072;-58
2022/07/07 09:13:22;;;;;;;;;;;845.10;998.40;;;;;;5088916;28;19923;-57
2022/07/07 09:15:48;;;;;;;;;;;844.90;1024.00;;;;;;5091474;28;20361;-57
2022/07/07 09:18:29;;;;;;;;;;;844.90;1049.60;;;;;;5091438;28;19908;-59
2022/07/07 09:20:56;;;;;;;;;;;845.00;1049.60;;;;;;5089202;28;19912;-57
2022/07/07 09:23:21;;;;;;;;;;;845.00;1049.60;;;;;;5091145;28;19916;-59
2022/07/07 09:25:47;;;;;;;;;;;844.80;1024.00;;;;;;5091097;28;19998;-59
2022/07/07 09:28:13;;;;;;;;;;;820.00;998.40;;;;;;5091249;28;19915;-58
2022/07/07 09:30:40;;;;;;;;;;;820.10;1024.00;;;;;;5091210;28;20316;-59
2022/07/07 09:33:05;;;;;;;;;;;820.10;1024.00;;;;;;5091238;28;19908;-57
2022/07/07 09:38:29;;;;;;;;;;;820.10;1024.00;;;;;;5068064;28;20039;-58
2022/07/07 09:41:00;;;;;;;;;;;819.60;998.40;;;;;;5068536;28;20386;-59
2022/07/07 09:43:27;;;;;;;;;;;819.80;1049.60;;;;;;5068447;28;19925;-58
2022/07/07 09:46:09;;;;;;;;;;;819.70;1024.00;;;;;;5068605;28;20378;-59
2022/07/07 09:48:36;;;;;;;;;;;819.30;1049.60;;;;;;5067003;28;19920;-58
2022/07/07 09:51:16;;;;;;;;;;;794.50;1024.00;;;;;;5069448;28;19919;-58
2022/07/07 09:53:52;;;;;;;;;;;794.20;998.40;;;;;;5068740;28;19995;-57
2022/07/07 09:56:21;;;;;;;;;;;794.00;972.80;;;;;;5069638;28;20377;-58
2022/07/07 09:58:47;;;;;;;;;;;794.20;972.80;;;;;;5068197;28;19909;-59
2022/07/07 10:01:12;;;;;;;;;;;794.20;947.20;;;;;;5067479;28;19921;-58
2022/07/07 10:03:39;;;;;;;;;;;794.40;1024.00;;;;;;5067568;28;20493;-59
2022/07/07 10:06:05;;;;;;;;;;;794.30;998.40;;;;;;5067816;28;19917;-59
2022/07/07 10:08:32;;;;;;;;;;;794.30;998.40;;;;;;5067336;28;19955;-57
2022/07/07 10:10:58;;;;;;;;;;;794.20;947.20;;;;;;5067387;28;19913;-59
2022/07/07 10:13:26;;;;;;;;;;;794.00;972.80;;;;;;5066982;28;19917;-59
2022/07/07 10:15:52;;;;;;;;;;;768.90;972.80;;;;;;5032983;28;19958;-59
2022/07/07 10:18:18;;;;;;;;;;;768.80;972.80;;;;;;5029917;28;20322;-58
2022/07/07 10:20:44;;;;;;;;;;;768.60;1024.00;;;;;;5030089;28;20013;-59
2022/07/07 10:23:10;;;;;;;;;;;768.70;1024.00;;;;;;5029735;28;19921;-59
2022/07/07 10:25:36;;;;;;;;;;;768.80;972.80;;;;;;5028462;28;20358;-58
2022/07/07 10:28:01;;;;;;;;;;;768.90;972.80;;;;;;5029983;28;19909;-59
2022/07/07 10:30:30;;;;;;;;;;;793.60;972.80;;;;;;5029406;28;19909;-59
2022/07/07 10:32:57;;;;;;;;;;;768.90;947.20;;;;;;5029718;28;20360;-59
2022/07/07 10:35:23;;;;;;;;;;;768.70;947.20;;;;;;5029689;28;19935;-60
2022/07/07 10:37:49;;;;;;;;;;;768.40;947.20;;;;;;5029585;28;20412;-57
2022/07/07 10:40:25;;;;;;;;;;;768.60;972.80;;;;;;5029269;28;20012;-58
2022/07/07 10:43:10;;;;;;;;;;;768.70;921.60;;;;;;5029559;28;19932;-56
2022/07/07 10:45:41;;;;;;;;;;;768.40;947.20;;;;;;5028584;28;19913;-58
2022/07/07 10:48:07;;;;;;;;;;;768.40;972.80;;;;;;5029683;28;20272;-58
2022/07/07 10:50:33;;;;;;;;;;;768.10;947.20;;;;;;5029758;28;19936;-60
2022/07/07 10:52:59;;;;;;;;;;;768.10;972.80;;;;;;5028812;28;20382;-57
2022/07/07 10:55:43;;;;;;;;;;;768.30;972.80;;;;;;5029467;28;20004;-58
2022/07/07 10:58:08;;;;;;;;;;;768.20;972.80;;;;;;5029120;28;19909;-59
2022/07/07 11:00:34;;;;;;;;;;;768.30;947.20;;;;;;5048678;28;19927;-59
2022/07/07 11:03:05;;;;;;;;;;;768.40;947.20;;;;;;5068747;28;19936;-58
2022/07/07 11:05:32;;;;;;;;;;;743.30;947.20;;;;;;5068906;28;19943;-60
2022/07/07 11:07:59;;;;;;;;;;;768.30;972.80;;;;;;5068892;28;19919;-59
2022/07/07 11:10:36;;;;;;;;;;;743.30;921.60;;;;;;5069113;28;19916;-58
2022/07/07 11:13:17;;;;;;;;;;;743.30;947.20;;;;;;5068889;28;20601;-59
2022/07/07 11:15:46;;;;;;;;;;;768.00;947.20;;;;;;5068947;28;19912;-57
2022/07/07 11:18:13;;;;;;;;;;;743.20;921.60;;;;;;5068575;28;19954;-57
2022/07/07 11:21:14;;;;;;;;;;;743.10;972.80;;;;;;5068776;28;19908;-59
2022/07/07 11:23:44;;;;;;;;;;;743.20;972.80;;;;;;5066074;28;19961;-59
2022/07/07 11:26:10;;;;;;;;;;;768.00;972.80;;;;;;5066158;28;19999;-62
2022/07/07 11:28:36;;;;;;;;;;;768.10;972.80;;;;;;5065623;28;20020;-57
2022/07/07 11:31:03;;;;;;;;;;;768.30;1024.00;;;;;;5065935;28;19912;-58
2022/07/07 11:33:29;;;;;;;;;;;768.30;972.80;;;;;;5066193;28;19959;-58
2022/07/07 11:35:55;;;;;;;;;;;768.30;972.80;;;;;;5066431;28;19943;-57
2022/07/07 11:38:25;;;;;;;;;;;768.40;998.40;;;;;;5048529;28;19912;-57
2022/07/07 11:40:50;;;;;;;;;;;768.40;998.40;;;;;;5065979;28;19913;-59
2022/07/07 11:43:34;;;;;;;;;;;768.30;998.40;;;;;;5068065;28;19927;-58
2022/07/07 11:45:59;;;;;;;;;;;768.30;972.80;;;;;;5070091;28;19916;-59
2022/07/07 11:48:31;;;;;;;;;;;768.20;998.40;;;;;;5070514;28;19913;-59
2022/07/07 11:50:56;;;;;;;;;;;768.30;998.40;;;;;;5070017;28;20377;-58
2022/07/07 11:53:23;;;;;;;;;;;768.20;998.40;;;;;;5070291;28;19908;-57
2022/07/07 11:55:49;;;;;;;;;;;768.30;998.40;;;;;;5069951;28;20323;-57
2022/07/07 11:58:14;;;;;;;;;;;768.40;998.40;;;;;;5073599;28;19995;-58
2022/07/07 12:00:40;;;;;;;;;;;768.40;998.40;;;;;;5073992;28;20367;-60
2022/07/07 12:03:07;;;;;;;;;;;768.40;1024.00;;;;;;5073857;28;19978;-58
2022/07/07 12:05:34;;;;;;;;;;;768.50;1024.00;;;;;;5074172;28;19912;-60
2022/07/07 12:08:05;;;;;;;;;;;768.60;1024.00;;;;;;5073670;28;20294;-60
2022/07/07 12:10:48;;;;;;;;;;;768.50;1024.00;;;;;;5073865;28;19912;-60
2022/07/07 12:13:14;;;;;;;;;;;768.60;998.40;;;;;;5073926;28;19912;-60
2022/07/07 12:15:39;;;;;;;;;;;768.60;998.40;;;;;;5073772;28;19916;-60
2022/07/07 12:18:06;;;;;;;;;;;768.50;972.80;;;;;;5078125;28;19922;-59
2022/07/07 12:20:32;;;;;;;;;;;768.20;998.40;;;;;;5093854;28;19908;-59
2022/07/07 12:22:59;;;;;;;;;;;768.40;998.40;;;;;;5093698;28;19935;-59
2022/07/07 12:25:25;;;;;;;;;;;768.50;998.40;;;;;;5093860;28;19912;-59
2022/07/07 12:27:52;;;;;;;;;;;768.50;998.40;;;;;;5094004;28;19908;-60
2022/07/07 12:30:17;;;;;;;;;;;768.50;1024.00;;;;;;5093649;28;19912;-59
2022/07/07 12:32:46;;;;;;;;;;;768.50;1049.60;;;;;;5093813;28;20286;-59
2022/07/07 12:35:47;;;;;;;;;;;768.50;1049.60;;;;;;5093838;28;19908;-59
2022/07/07 12:38:13;;;;;;;;;;;768.60;1049.60;;;;;;5071233;28;19908;-58
2022/07/07 12:40:41;;;;;;;;;;;768.50;1024.00;;;;;;5070913;28;19912;-58
2022/07/07 12:43:07;;;;;;;;;;;768.30;1049.60;;;;;;5070813;28;19927;-60
2022/07/07 12:45:33;;;;;;;;;;;768.40;1049.60;;;;;;5070945;28;20418;-59
2022/07/07 12:47:59;;;;;;;;;;;743.30;1049.60;;;;;;5070844;28;19999;-58
2022/07/07 12:50:25;;;;;;;;;;;768.10;1075.20;;;;;;5071049;28;19908;-58
2022/07/07 12:53:05;;;;;;;;;;;768.20;1049.60;;;;;;5070782;28;19947;-59
2022/07/07 12:55:33;;;;;;;;;;;768.30;1075.20;;;;;;5070804;28;19963;-60
2022/07/07 12:58:14;;;;;;;;;;;768.40;1075.20;;;;;;5070533;28;19954;-60
2022/07/07 13:00:40;;;;;;;;;;;768.40;1049.60;;;;;;5070635;28;20404;-59
2022/07/07 13:03:06;;;;;;;;;;;768.20;1075.20;;;;;;5070722;28;19916;-60
2022/07/07 13:05:31;;;;;;;;;;;768.40;1075.20;;;;;;5070851;28;19908;-60
2022/07/07 13:07:57;;;;;;;;;;;768.60;1075.20;;;;;;5070642;28;19915;-58
2022/07/07 13:10:25;;;;;;;;;;;768.40;1075.20;;;;;;5070788;28;19951;-60
2022/07/07 13:12:54;;;;;;;;;;;768.60;1049.60;;;;;;5087935;28;20357;-58
2022/07/07 13:15:20;;;;;;;;;;;768.80;1049.60;;;;;;5092622;28;19908;-58
2022/07/07 13:17:46;;;;;;;;;;;768.80;1049.60;;;;;;5092960;28;19954;-59
2022/07/07 13:20:14;;;;;;;;;;;768.90;1049.60;;;;;;5092909;28;19908;-60
2022/07/07 13:22:40;;;;;;;;;;;768.90;1049.60;;;;;;5092792;28;19908;-57
2022/07/07 13:25:06;;;;;;;;;;;768.90;1049.60;;;;;;5090536;28;19919;-58
2022/07/07 13:27:32;;;;;;;;;;;768.90;1024.00;;;;;;5091220;28;19908;-60
2022/07/07 13:29:57;;;;;;;;;;;768.90;1075.20;;;;;;5091084;28;19912;-60
2022/07/07 13:32:23;;;;;;;;;;;768.60;1049.60;;;;;;5091201;28;19912;-58
2022/07/07 13:34:49;;;;;;;;;;;768.60;1075.20;;;;;;5091013;28;20350;-59
2022/07/07 13:37:14;;;;;;;;;;;768.50;1049.60;;;;;;5090659;28;19920;-59
2022/07/07 13:39:40;;;;;;;;;;;768.60;1075.20;;;;;;5090884;28;19999;-59
2022/07/07 13:42:06;;;;;;;;;;;768.60;1049.60;;;;;;5090866;28;19912;-59
2022/07/07 13:44:31;;;;;;;;;;;768.40;1075.20;;;;;;5090722;28;20422;-59